This is the latest recevied weather packets stored in our database for station/object SQ8NA-15. If no packets are shown the sender has not sent any weather packets the latest 10 day(s).
| Time | Temp. | Humidity | Pressure | Rain* | Wind** | Luminosity | Snow |
|---|---|---|---|---|---|---|---|
| 1787862356 | 12.78° C | 78% | 985.4 hPa | 0 mm | - | 0 W/m² | - |
| 1787861732 | 12.22° C | 83% | 985.4 hPa | 0 mm | - | 0 W/m² | - |
| 1787859856 | 13.89° C | 76% | 985.4 hPa | 0 mm | - | 0 W/m² | - |
| 1787859247 | 13.89° C | 77% | 985.3 hPa | 0 mm | - | 0 W/m² | - |
| 1787857968 | 13.89° C | 75% | 985.4 hPa | 0 mm | - | 0 W/m² | - |
| 1787857356 | 14.44° C | 73% | 985.3 hPa | 0 mm | - | 0 W/m² | - |
| 1787856755 | 15° C | 70% | 985.3 hPa | 0 mm | - | 0 W/m² | - |
| 1787855506 | 15.56° C | 67% | 985.1 hPa | 0 mm | - | 0 W/m² | - |
| 1787854881 | 15.56° C | 68% | 985 hPa | 0 mm | - | 0 W/m² | - |
| 1787854267 | 15.56° C | 67% | 984.9 hPa | 0 mm | - | 0 W/m² | - |
| 1787853029 | 17.22° C | 59% | 984.8 hPa | 0 mm | - | 0 W/m² | - |
| 1787852422 | 17.78° C | 58% | 984.6 hPa | 0 mm | - | 1 W/m² | - |
| 1787851805 | 18.33° C | 56% | 984.6 hPa | 0 mm | - | 2 W/m² | - |
| 1787850568 | 18.89° C | 55% | 984.5 hPa | 0 mm | - | 10 W/m² | - |
| 1787849968 | 19.44° C | 52% | 984.4 hPa | 0 mm | - | 16 W/m² | - |
| 1787849355 | 20.56° C | 49% | 984.4 hPa | 0 mm | - | 23 W/m² | - |
| 1787848119 | 20.56° C | 50% | 984.3 hPa | 0 mm | - | 37 W/m² | - |
| 1787847519 | 20.56° C | 50% | 984.3 hPa | 0 mm | - | 44 W/m² | - |
| 1787846905 | 21.11° C | 51% | 984.2 hPa | 0 mm | - | 49 W/m² | - |
| 1787845668 | 21.67° C | 48% | 984.3 hPa | 0 mm | - | 58 W/m² | - |
| 1787845056 | 21.67° C | 47% | 984.3 hPa | 0 mm | - | 66 W/m² | - |
| 1787844444 | 22.22° C | 46% | 984.3 hPa | 0 mm | - | 71 W/m² | - |
| 1787843217 | 22.22° C | 47% | 984.2 hPa | 0 mm | - | 207 W/m² | - |
| 1787842606 | 22.78° C | 46% | 984.3 hPa | 0 mm | - | 233 W/m² | - |
| 1787842005 | 22.78° C | 47% | 984.2 hPa | 0 mm | - | 259 W/m² | - |
* Rain latest hour (hover to see other rain measurements)
** Current wind speed in m/s (hover to see current wind gust speed)